Samantha — WDJ7141 — position and weather

sailwx.info

Track history (hours):
 
Tides and Currents Weather Stations Pressure Air Temp Water Temp Dewpoint Dewpoint Depression Visibility Wind Speed Wind Dir Waves Ship Positions

Samantha

Owner: Rhodes, Dan W, San Pedro, CA. More information available from US FCC via Universal Licensing System.

Last reported at 2017-Nov-14 17:40 UTC. Time now 2017-Nov-18 01:05 UTC.
Position N 33°47' W 119°15'.

Length 16 m.

Type: Sailing vessel. MMSI: 368003740.

Date/timePositionNaut miles runAvg speedWind from/ knotsBaromVisibWave heightAir tempDewpointWater temp
2017-Nov-14 17:40N 33°47' W 119°15'1 5.6
2017-Nov-14 17:30N 33°48' W 119°16'3 5.8
2017-Nov-14 16:58N 33°50' W 119°19'3 5.4
2017-Nov-14 16:29N 33°52' W 119°21'3 5.7
2017-Nov-14 15:58N 33°54' W 119°24'3 5.6
2017-Nov-14 15:27N 33°56' W 119°26'3 5.7
2017-Nov-14 14:59N 33°58' W 119°28'4 0.1
2017-Nov-12 23:33N 34°01' W 119°32'0 6.0
2017-Nov-12 23:30N 34°01' W 119°32'2 3.3
2017-Nov-12 22:59N 34°03' W 119°31'3 5.8
2017-Nov-12 22:26N 34°06' W 119°32'3 7.2
2017-Nov-12 21:57N 34°09' W 119°34'17 2.2
2017-Nov-12 14:31N 34°24' W 119°41'0 0.0
2017-Nov-11 03:22N 34°24' W 119°41'  
2017-Nov-08 10:58N 34°24' W 119°41'0 0.0
2017-Nov-08 04:13N 34°24' W 119°41'0 0.0
2017-Nov-07 22:41N 34°24' W 119°41'0 0.0
2017-Nov-07 13:20N 34°24' W 119°41'0 0.0
2017-Nov-07 08:02N 34°24' W 119°41'0 0.0
2017-Nov-07 07:50N 34°24' W 119°41'0 0.0
2017-Nov-07 03:50N 34°24' W 119°41'0 0.0
2017-Nov-07 02:32N 34°24' W 119°41'0 0.0
2017-Nov-06 22:47N 34°24' W 119°41'  
Track history (hours):
 
Tides and Currents Weather Stations Pressure Air Temp Water Temp Dewpoint Dewpoint Depression Visibility Wind Speed Wind Dir Waves Ship Positions

Samantha

Owner: Rhodes, Dan W, San Pedro, CA. More information available from US FCC via Universal Licensing System.

Last reported at 2017-Nov-14 17:40 UTC. Time now 2017-Nov-18 01:05 UTC.
Position N 33°47' W 119°15'.

Length 16 m.

Type: Sailing vessel. MMSI: 368003740.

Date/timePositionNaut miles runAvg speedWind from/ knotsBaromVisibWave heightAir tempDewpointWater temp
2017-Nov-14 17:40N 33°47' W 119°15'1 5.6
2017-Nov-14 17:30N 33°48' W 119°16'3 5.8
2017-Nov-14 16:58N 33°50' W 119°19'3 5.4
2017-Nov-14 16:29N 33°52' W 119°21'3 5.7
2017-Nov-14 15:58N 33°54' W 119°24'3 5.6
2017-Nov-14 15:27N 33°56' W 119°26'3 5.7
2017-Nov-14 14:59N 33°58' W 119°28'4 0.1
2017-Nov-12 23:33N 34°01' W 119°32'0 6.0
2017-Nov-12 23:30N 34°01' W 119°32'2 3.3
2017-Nov-12 22:59N 34°03' W 119°31'3 5.8
2017-Nov-12 22:26N 34°06' W 119°32'3 7.2
2017-Nov-12 21:57N 34°09' W 119°34'17 2.2
2017-Nov-12 14:31N 34°24' W 119°41'0 0.0
2017-Nov-11 03:22N 34°24' W 119°41'  
2017-Nov-08 10:58N 34°24' W 119°41'0 0.0
2017-Nov-08 04:13N 34°24' W 119°41'0 0.0
2017-Nov-07 22:41N 34°24' W 119°41'0 0.0
2017-Nov-07 13:20N 34°24' W 119°41'0 0.0
2017-Nov-07 08:02N 34°24' W 119°41'0 0.0
2017-Nov-07 07:50N 34°24' W 119°41'0 0.0
2017-Nov-07 03:50N 34°24' W 119°41'0 0.0
2017-Nov-07 02:32N 34°24' W 119°41'0 0.0
2017-Nov-06 22:47N 34°24' W 119°41'  

Dump ship's entire track history